sensor_id;sensor_type;location;lat;lon;timestamp;pressure;altitude;pressure_sealevel;temperature;humidity
53908;BME280;40469;47.998;7.794;2023-04-26T00:00:33;99039.47;;;6.05;100.00
53908;BME280;40469;47.998;7.794;2023-04-26T00:02:59;99041.19;;;6.01;100.00
53908;BME280;40469;47.998;7.794;2023-04-26T00:05:24;99039.47;;;6.05;100.00
53908;BME280;40469;47.998;7.794;2023-04-26T00:07:50;99042.16;;;6.11;100.00
53908;BME280;40469;47.998;7.794;2023-04-26T00:10:15;99033.47;;;6.07;100.00
53908;BME280;40469;47.998;7.794;2023-04-26T00:12:40;99042.09;;;6.08;100.00
53908;BME280;40469;47.998;7.794;2023-04-26T00:15:06;99044.75;;;6.13;100.00
53908;BME280;40469;47.998;7.794;2023-04-26T00:17:32;99042.16;;;6.13;100.00
53908;BME280;40469;47.998;7.794;2023-04-26T00:19:57;99050.84;;;6.16;100.00
53908;BME280;40469;47.998;7.794;2023-04-26T00:22:23;99041.31;;;6.15;100.00
53908;BME280;40469;47.998;7.794;2023-04-26T00:24:49;99045.53;;;6.07;100.00
53908;BME280;40469;47.998;7.794;2023-04-26T00:27:15;99039.56;;;6.11;100.00
53908;BME280;40469;47.998;7.794;2023-04-26T00:29:40;99043.88;;;6.12;100.00
53908;BME280;40469;47.998;7.794;2023-04-26T00:32:05;99047.28;;;6.08;100.00
53908;BME280;40469;47.998;7.794;2023-04-26T00:34:31;99040.38;;;6.08;100.00
53908;BME280;40469;47.998;7.794;2023-04-26T00:36:57;99037.78;;;6.08;100.00
53908;BME280;40469;47.998;7.794;2023-04-26T00:39:22;99037.75;;;6.07;100.00
53908;BME280;40469;47.998;7.794;2023-04-26T00:41:48;99037.75;;;6.02;100.00
53908;BME280;40469;47.998;7.794;2023-04-26T00:44:13;99037.66;;;5.96;100.00
53908;BME280;40469;47.998;7.794;2023-04-26T00:46:39;99041.19;;;6.03;100.00
53908;BME280;40469;47.998;7.794;2023-04-26T00:49:05;99044.66;;;6.02;100.00
53908;BME280;40469;47.998;7.794;2023-04-26T00:51:30;99040.28;;;5.99;100.00
53908;BME280;40469;47.998;7.794;2023-04-26T00:53:56;99048.94;;;5.98;100.00
53908;BME280;40469;47.998;7.794;2023-04-26T00:56:21;99056.59;;;5.91;100.00
53908;BME280;40469;47.998;7.794;2023-04-26T00:58:48;99048.03;;;5.96;100.00
53908;BME280;40469;47.998;7.794;2023-04-26T01:01:14;99051.53;;;5.98;100.00
53908;BME280;40469;47.998;7.794;2023-04-26T01:03:39;99042.00;;;5.97;100.00
53908;BME280;40469;47.998;7.794;2023-04-26T01:06:04;99048.09;;;6.01;100.00
53908;BME280;40469;47.998;7.794;2023-04-26T01:08:30;99046.22;;;5.91;100.00
53908;BME280;40469;47.998;7.794;2023-04-26T01:10:55;99036.59;;;5.79;100.00
53908;BME280;40469;47.998;7.794;2023-04-26T01:13:22;99037.47;;;5.79;100.00
53908;BME280;40469;47.998;7.794;2023-04-26T01:15:47;99035.63;;;5.69;100.00
53908;BME280;40469;47.998;7.794;2023-04-26T01:18:12;99036.41;;;5.60;100.00
53908;BME280;40469;47.998;7.794;2023-04-26T01:20:38;99041.53;;;5.56;100.00
53908;BME280;40469;47.998;7.794;2023-04-26T01:23:04;99036.38;;;5.59;100.00
53908;BME280;40469;47.998;7.794;2023-04-26T01:25:30;99036.44;;;5.63;100.00
53908;BME280;40469;47.998;7.794;2023-04-26T01:27:56;99031.22;;;5.60;100.00
53908;BME280;40469;47.998;7.794;2023-04-26T01:30:21;99032.97;;;5.64;100.00
53908;BME280;40469;47.998;7.794;2023-04-26T01:32:46;99031.28;;;5.66;100.00
53908;BME280;40469;47.998;7.794;2023-04-26T01:35:11;99025.22;;;5.66;100.00
53908;BME280;40469;47.998;7.794;2023-04-26T01:37:36;99022.72;;;5.70;100.00
53908;BME280;40469;47.998;7.794;2023-04-26T01:40:02;99023.63;;;5.76;100.00
53908;BME280;40469;47.998;7.794;2023-04-26T01:42:30;99021.06;;;5.77;100.00
53908;BME280;40469;47.998;7.794;2023-04-26T01:44:56;99012.38;;;5.72;100.00
53908;BME280;40469;47.998;7.794;2023-04-26T01:47:21;99014.06;;;5.68;100.00
53908;BME280;40469;47.998;7.794;2023-04-26T01:49:46;99007.97;;;5.68;100.00
53908;BME280;40469;47.998;7.794;2023-04-26T01:52:12;99008.84;;;5.65;100.00
53908;BME280;40469;47.998;7.794;2023-04-26T01:54:37;99015.66;;;5.59;100.00
53908;BME280;40469;47.998;7.794;2023-04-26T01:57:02;99017.34;;;5.55;100.00
53908;BME280;40469;47.998;7.794;2023-04-26T01:59:27;99012.25;;;5.64;100.00
53908;BME280;40469;47.998;7.794;2023-04-26T02:01:53;99015.75;;;5.68;100.00
53908;BME280;40469;47.998;7.794;2023-04-26T02:04:18;99018.38;;;5.69;100.00
53908;BME280;40469;47.998;7.794;2023-04-26T02:06:43;99020.09;;;5.69;100.00
53908;BME280;40469;47.998;7.794;2023-04-26T02:09:08;99023.50;;;5.66;100.00
53908;BME280;40469;47.998;7.794;2023-04-26T02:11:34;99029.47;;;5.59;100.00
53908;BME280;40469;47.998;7.794;2023-04-26T02:13:59;99019.88;;;5.50;100.00
53908;BME280;40469;47.998;7.794;2023-04-26T02:16:24;99025.06;;;5.50;100.00
53908;BME280;40469;47.998;7.794;2023-04-26T02:18:51;99019.81;;;5.44;100.00
53908;BME280;40469;47.998;7.794;2023-04-26T02:21:17;99025.13;;;5.57;100.00
53908;BME280;40469;47.998;7.794;2023-04-26T02:23:43;99021.69;;;5.59;100.00
53908;BME280;40469;47.998;7.794;2023-04-26T02:26:08;99026.06;;;5.62;100.00
53908;BME280;40469;47.998;7.794;2023-04-26T02:28:33;99018.28;;;5.62;100.00
53908;BME280;40469;47.998;7.794;2023-04-26T02:30:59;99019.09;;;5.56;100.00
53908;BME280;40469;47.998;7.794;2023-04-26T02:33:25;99015.41;;;5.36;100.00
53908;BME280;40469;47.998;7.794;2023-04-26T02:35:51;99020.59;;;5.37;100.00
53908;BME280;40469;47.998;7.794;2023-04-26T02:38:16;99025.03;;;5.46;100.00
53908;BME280;40469;47.998;7.794;2023-04-26T02:40:41;99013.88;;;5.53;100.00
53908;BME280;40469;47.998;7.794;2023-04-26T02:43:06;99025.06;;;5.50;100.00
53908;BME280;40469;47.998;7.794;2023-04-26T02:45:34;99027.53;;;5.41;100.00
53908;BME280;40469;47.998;7.794;2023-04-26T02:48:04;99017.97;;;5.34;100.00
53908;BME280;40469;47.998;7.794;2023-04-26T02:50:30;99028.31;;;5.34;100.00
53908;BME280;40469;47.998;7.794;2023-04-26T02:52:55;99026.75;;;5.45;100.00
53908;BME280;40469;47.998;7.794;2023-04-26T02:55:20;99028.44;;;5.45;100.00
53908;BME280;40469;47.998;7.794;2023-04-26T02:57:46;99015.50;;;5.42;100.00
53908;BME280;40469;47.998;7.794;2023-04-26T03:00:11;99016.25;;;5.35;100.00
53908;BME280;40469;47.998;7.794;2023-04-26T03:02:38;99024.78;;;5.26;100.00
53908;BME280;40469;47.998;7.794;2023-04-26T03:05:03;99026.44;;;5.22;100.00
53908;BME280;40469;47.998;7.794;2023-04-26T03:07:28;99025.66;;;5.26;100.00
53908;BME280;40469;47.998;7.794;2023-04-26T03:09:53;99021.38;;;5.30;100.00
53908;BME280;40469;47.998;7.794;2023-04-26T03:12:19;99020.53;;;5.29;100.00
53908;BME280;40469;47.998;7.794;2023-04-26T03:14:44;99027.25;;;5.18;100.00
53908;BME280;40469;47.998;7.794;2023-04-26T03:17:09;99017.69;;;5.11;100.00
53908;BME280;40469;47.998;7.794;2023-04-26T03:19:34;99022.03;;;5.12;100.00
53908;BME280;40469;47.998;7.794;2023-04-26T03:22:00;99018.56;;;5.13;100.00
53908;BME280;40469;47.998;7.794;2023-04-26T03:24:25;99014.25;;;5.12;100.00
53908;BME280;40469;47.998;7.794;2023-04-26T03:26:51;99009.06;;;5.10;100.00
53908;BME280;40469;47.998;7.794;2023-04-26T03:29:16;99006.38;;;5.04;100.00
53908;BME280;40469;47.998;7.794;2023-04-26T03:31:41;99008.09;;;5.04;100.00
53908;BME280;40469;47.998;7.794;2023-04-26T03:34:07;99008.94;;;5.03;100.00
53908;BME280;40469;47.998;7.794;2023-04-26T03:36:32;98998.56;;;5.00;100.00
53908;BME280;40469;47.998;7.794;2023-04-26T03:38:58;98991.59;;;4.92;100.00
53908;BME280;40469;47.998;7.794;2023-04-26T03:41:23;98995.81;;;4.87;100.00
53908;BME280;40469;47.998;7.794;2023-04-26T03:43:49;99003.59;;;4.87;100.00
53908;BME280;40469;47.998;7.794;2023-04-26T03:46:14;99001.81;;;4.85;100.00
53908;BME280;40469;47.998;7.794;2023-04-26T03:48:40;99006.06;;;4.81;100.00
53908;BME280;40469;47.998;7.794;2023-04-26T03:51:05;99005.09;;;4.74;100.00
53908;BME280;40469;47.998;7.794;2023-04-26T03:53:31;99005.13;;;4.73;100.00
53908;BME280;40469;47.998;7.794;2023-04-26T03:55:56;99001.72;;;4.77;100.00
53908;BME280;40469;47.998;7.794;2023-04-26T03:58:22;99006.03;;;4.77;100.00
53908;BME280;40469;47.998;7.794;2023-04-26T04:00:47;99005.97;;;4.73;100.00
53908;BME280;40469;47.998;7.794;2023-04-26T04:03:12;99009.34;;;4.69;100.00
53908;BME280;40469;47.998;7.794;2023-04-26T04:05:37;99006.72;;;4.65;100.00
53908;BME280;40469;47.998;7.794;2023-04-26T04:08:03;99006.63;;;4.60;100.00
53908;BME280;40469;47.998;7.794;2023-04-26T04:10:28;99003.16;;;4.58;100.00
53908;BME280;40469;47.998;7.794;2023-04-26T04:12:53;98999.69;;;4.56;100.00
53908;BME280;40469;47.998;7.794;2023-04-26T04:15:19;99002.16;;;4.50;100.00
53908;BME280;40469;47.998;7.794;2023-04-26T04:17:44;99010.66;;;4.43;100.00
53908;BME280;40469;47.998;7.794;2023-04-26T04:20:10;99006.38;;;4.42;100.00
53908;BME280;40469;47.998;7.794;2023-04-26T04:22:36;99011.56;;;4.43;100.00
53908;BME280;40469;47.998;7.794;2023-04-26T04:25:03;99007.19;;;4.41;100.00
53908;BME280;40469;47.998;7.794;2023-04-26T04:27:30;99003.66;;;4.35;100.00
53908;BME280;40469;47.998;7.794;2023-04-26T04:29:56;99002.84;;;4.36;100.00
53908;BME280;40469;47.998;7.794;2023-04-26T04:32:21;99009.69;;;4.33;100.00
53908;BME280;40469;47.998;7.794;2023-04-26T04:34:47;99014.88;;;4.34;100.00
53908;BME280;40469;47.998;7.794;2023-04-26T04:37:13;99020.06;;;4.36;100.00
53908;BME280;40469;47.998;7.794;2023-04-26T04:39:38;99024.38;;;4.37;100.00
53908;BME280;40469;47.998;7.794;2023-04-26T04:42:03;99017.53;;;4.41;100.00
53908;BME280;40469;47.998;7.794;2023-04-26T04:44:28;99015.09;;;4.48;100.00
53908;BME280;40469;47.998;7.794;2023-04-26T04:46:54;99022.09;;;4.55;100.00
53908;BME280;40469;47.998;7.794;2023-04-26T04:49:20;99013.59;;;4.64;100.00
53908;BME280;40469;47.998;7.794;2023-04-26T04:51:47;99016.28;;;4.70;100.00
53908;BME280;40469;47.998;7.794;2023-04-26T04:54:13;99025.00;;;4.77;100.00
53908;BME280;40469;47.998;7.794;2023-04-26T04:56:38;99023.38;;;4.87;100.00
53908;BME280;40469;47.998;7.794;2023-04-26T04:59:04;99020.09;;;4.99;100.00
53908;BME280;40469;47.998;7.794;2023-04-26T05:01:32;99021.88;;;5.03;100.00
53908;BME280;40469;47.998;7.794;2023-04-26T05:03:57;99025.44;;;5.09;100.00
53908;BME280;40469;47.998;7.794;2023-04-26T05:06:22;99031.47;;;5.11;100.00
53908;BME280;40469;47.998;7.794;2023-04-26T05:08:48;99035.81;;;5.11;100.00
53908;BME280;40469;47.998;7.794;2023-04-26T05:11:24;99040.94;;;5.09;100.00
53908;BME280;40469;47.998;7.794;2023-04-26T05:13:49;99040.13;;;5.10;100.00
53908;BME280;40469;47.998;7.794;2023-04-26T05:16:14;99043.63;;;5.14;100.00
53908;BME280;40469;47.998;7.794;2023-04-26T05:18:40;99041.06;;;5.17;100.00
53908;BME280;40469;47.998;7.794;2023-04-26T05:21:05;99034.22;;;5.21;100.00
53908;BME280;40469;47.998;7.794;2023-04-26T05:23:31;99046.38;;;5.26;100.00
53908;BME280;40469;47.998;7.794;2023-04-26T05:26:00;99050.72;;;5.30;100.00
53908;BME280;40469;47.998;7.794;2023-04-26T05:28:25;99056.81;;;5.34;100.00
53908;BME280;40469;47.998;7.794;2023-04-26T05:30:51;99060.28;;;5.38;100.00
53908;BME280;40469;47.998;7.794;2023-04-26T05:33:16;99058.63;;;5.43;100.00
53908;BME280;40469;47.998;7.794;2023-04-26T05:35:41;99060.44;;;5.48;100.00
53908;BME280;40469;47.998;7.794;2023-04-26T05:38:06;99062.25;;;5.54;100.00
53908;BME280;40469;47.998;7.794;2023-04-26T05:40:31;99066.50;;;5.52;100.00
53908;BME280;40469;47.998;7.794;2023-04-26T05:42:57;99077.00;;;5.63;100.00
53908;BME280;40469;47.998;7.794;2023-04-26T05:45:22;99077.75;;;5.51;100.00
53908;BME280;40469;47.998;7.794;2023-04-26T05:47:47;99080.34;;;5.51;100.00
53908;BME280;40469;47.998;7.794;2023-04-26T05:50:12;99082.97;;;5.57;100.00
53908;BME280;40469;47.998;7.794;2023-04-26T05:52:38;99095.41;;;5.19;100.00
53908;BME280;40469;47.998;7.794;2023-04-26T05:55:03;99090.06;;;5.05;100.00
53908;BME280;40469;47.998;7.794;2023-04-26T05:57:30;99099.63;;;5.09;100.00
53908;BME280;40469;47.998;7.794;2023-04-26T05:59:55;99108.50;;;5.26;100.00
53908;BME280;40469;47.998;7.794;2023-04-26T06:02:20;99111.94;;;5.27;100.00
53908;BME280;40469;47.998;7.794;2023-04-26T06:04:45;99111.91;;;5.25;100.00
53908;BME280;40469;47.998;7.794;2023-04-26T06:07:11;99114.53;;;5.27;100.00
53908;BME280;40469;47.998;7.794;2023-04-26T06:09:38;99119.69;;;5.27;100.00
53908;BME280;40469;47.998;7.794;2023-04-26T06:12:04;99124.13;;;5.34;100.00
53908;BME280;40469;47.998;7.794;2023-04-26T06:14:29;99119.06;;;5.43;100.00
53908;BME280;40469;47.998;7.794;2023-04-26T06:16:55;99121.00;;;5.60;100.00
53908;BME280;40469;47.998;7.794;2023-04-26T06:19:20;99106.41;;;5.66;100.00
53908;BME280;40469;47.998;7.794;2023-04-26T06:21:45;99107.44;;;5.79;100.00
53908;BME280;40469;47.998;7.794;2023-04-26T06:24:12;99103.22;;;5.91;100.00
53908;BME280;40469;47.998;7.794;2023-04-26T06:26:37;99105.06;;;5.98;100.00
53908;BME280;40469;47.998;7.794;2023-04-26T06:29:03;99100.84;;;6.06;100.00
53908;BME280;40469;47.998;7.794;2023-04-26T06:31:28;99111.22;;;6.06;100.00
53908;BME280;40469;47.998;7.794;2023-04-26T06:33:53;99095.69;;;6.07;100.00
53908;BME280;40469;47.998;7.794;2023-04-26T06:36:18;99087.94;;;6.14;100.00
53908;BME280;40469;47.998;7.794;2023-04-26T06:38:44;99086.34;;;6.23;100.00
53908;BME280;40469;47.998;7.794;2023-04-26T06:41:09;99086.38;;;6.30;100.00
53908;BME280;40469;47.998;7.794;2023-04-26T06:43:34;99096.00;;;6.41;100.00
53908;BME280;40469;47.998;7.794;2023-04-26T06:45:59;99090.88;;;6.49;100.00
53908;BME280;40469;47.998;7.794;2023-04-26T06:48:25;99094.38;;;6.51;100.00
53908;BME280;40469;47.998;7.794;2023-04-26T06:50:50;99086.56;;;6.50;100.00
53908;BME280;40469;47.998;7.794;2023-04-26T06:53:16;99089.19;;;6.56;100.00
53908;BME280;40469;47.998;7.794;2023-04-26T06:55:41;99087.56;;;6.64;100.00
53908;BME280;40469;47.998;7.794;2023-04-26T06:58:06;99083.28;;;6.69;100.00
53908;BME280;40469;47.998;7.794;2023-04-26T07:00:31;99085.88;;;6.69;100.00
53908;BME280;40469;47.998;7.794;2023-04-26T07:02:57;99091.03;;;6.66;100.00
53908;BME280;40469;47.998;7.794;2023-04-26T07:05:22;99091.09;;;6.75;100.00
53908;BME280;40469;47.998;7.794;2023-04-26T07:07:47;99088.56;;;6.86;100.00
53908;BME280;40469;47.998;7.794;2023-04-26T07:10:14;99090.34;;;6.95;100.00
53908;BME280;40469;47.998;7.794;2023-04-26T07:12:39;99088.66;;;6.95;100.00
53908;BME280;40469;47.998;7.794;2023-04-26T07:15:04;99086.09;;;7.01;100.00
53908;BME280;40469;47.998;7.794;2023-04-26T07:17:33;99087.84;;;7.09;100.00
53908;BME280;40469;47.998;7.794;2023-04-26T07:19:58;99093.91;;;7.09;100.00
53908;BME280;40469;47.998;7.794;2023-04-26T07:22:23;99095.66;;;7.10;100.00
53908;BME280;40469;47.998;7.794;2023-04-26T07:24:48;99090.47;;;7.16;100.00
53908;BME280;40469;47.998;7.794;2023-04-26T07:27:14;99087.06;;;7.19;100.00
53908;BME280;40469;47.998;7.794;2023-04-26T07:29:39;99079.28;;;7.27;100.00
53908;BME280;40469;47.998;7.794;2023-04-26T07:32:05;99085.41;;;7.36;100.00
53908;BME280;40469;47.998;7.794;2023-04-26T07:34:30;99087.22;;;7.51;100.00
53908;BME280;40469;47.998;7.794;2023-04-26T07:36:56;99093.34;;;7.67;100.00
53908;BME280;40469;47.998;7.794;2023-04-26T07:39:21;99089.03;;;7.71;100.00
53908;BME280;40469;47.998;7.794;2023-04-26T07:41:46;99084.75;;;7.81;100.00
53908;BME280;40469;47.998;7.794;2023-04-26T07:44:12;99089.13;;;8.06;100.00
53908;BME280;40469;47.998;7.794;2023-04-26T07:46:37;99080.47;;;8.09;100.00
53908;BME280;40469;47.998;7.794;2023-04-26T07:49:02;99087.44;;;8.16;100.00
53908;BME280;40469;47.998;7.794;2023-04-26T07:51:27;99083.13;;;8.24;100.00
53908;BME280;40469;47.998;7.794;2023-04-26T07:53:53;99081.34;;;8.12;100.00
53908;BME280;40469;47.998;7.794;2023-04-26T07:56:20;99089.16;;;8.12;100.00
53908;BME280;40469;47.998;7.794;2023-04-26T07:58:45;99080.50;;;8.24;100.00
53908;BME280;40469;47.998;7.794;2023-04-26T08:01:11;99088.31;;;8.38;100.00
53908;BME280;40469;47.998;7.794;2023-04-26T08:03:36;99088.34;;;8.43;100.00
53908;BME280;40469;47.998;7.794;2023-04-26T08:06:04;99087.50;;;8.42;100.00
53908;BME280;40469;47.998;7.794;2023-04-26T08:08:29;99084.00;;;8.54;100.00
53908;BME280;40469;47.998;7.794;2023-04-26T08:10:56;99084.03;;;8.76;100.00
53908;BME280;40469;47.998;7.794;2023-04-26T08:13:21;99079.69;;;8.76;100.00
53908;BME280;40469;47.998;7.794;2023-04-26T08:15:46;99084.91;;;8.54;100.00
53908;BME280;40469;47.998;7.794;2023-04-26T08:18:12;99082.28;;;8.58;100.00
53908;BME280;40469;47.998;7.794;2023-04-26T08:20:37;99089.22;;;8.66;100.00
53908;BME280;40469;47.998;7.794;2023-04-26T08:23:03;99089.25;;;8.76;100.00
53908;BME280;40469;47.998;7.794;2023-04-26T08:25:28;99078.84;;;8.65;100.00
53908;BME280;40469;47.998;7.794;2023-04-26T08:27:53;99080.56;;;8.72;100.00
53908;BME280;40469;47.998;7.794;2023-04-26T08:30:19;99084.88;;;8.73;100.00
53908;BME280;40469;47.998;7.794;2023-04-26T08:32:45;99077.97;;;8.84;100.00
53908;BME280;40469;47.998;7.794;2023-04-26T08:35:10;99084.03;;;8.86;100.00
53908;BME280;40469;47.998;7.794;2023-04-26T08:37:35;99081.41;;;8.88;100.00
53908;BME280;40469;47.998;7.794;2023-04-26T08:40:02;99079.66;;;8.87;100.00
53908;BME280;40469;47.998;7.794;2023-04-26T08:42:27;99075.28;;;9.12;100.00
53908;BME280;40469;47.998;7.794;2023-04-26T08:44:53;99073.47;;;9.49;100.00
53908;BME280;40469;47.998;7.794;2023-04-26T08:47:25;99075.88;;;9.88;100.00
53908;BME280;40469;47.998;7.794;2023-04-26T08:49:53;99072.31;;;10.06;100.00
53908;BME280;40469;47.998;7.794;2023-04-26T08:52:23;99073.16;;;10.11;100.00
53908;BME280;40469;47.998;7.794;2023-04-26T08:54:51;99071.25;;;10.39;100.00
53908;BME280;40469;47.998;7.794;2023-04-26T08:57:17;99073.97;;;10.18;100.00
53908;BME280;40469;47.998;7.794;2023-04-26T08:59:42;99084.44;;;10.13;100.00
53908;BME280;40469;47.998;7.794;2023-04-26T09:02:12;99082.78;;;9.98;100.00
53908;BME280;40469;47.998;7.794;2023-04-26T09:04:40;99076.88;;;9.56;100.00
53908;BME280;40469;47.998;7.794;2023-04-26T09:07:06;99082.09;;;9.55;100.00
53908;BME280;40469;47.998;7.794;2023-04-26T09:09:35;99082.94;;;9.60;100.00
53908;BME280;40469;47.998;7.794;2023-04-26T09:12:05;99077.72;;;9.64;100.00
53908;BME280;40469;47.998;7.794;2023-04-26T09:14:30;99085.44;;;9.87;100.00
53908;BME280;40469;47.998;7.794;2023-04-26T09:16:56;99070.56;;;10.11;100.00
53908;BME280;40469;47.998;7.794;2023-04-26T09:19:36;99074.94;;;10.04;100.00
53908;BME280;40469;47.998;7.794;2023-04-26T09:22:02;99067.84;;;10.31;100.00
53908;BME280;40469;47.998;7.794;2023-04-26T09:24:28;99067.75;;;10.39;100.00
53908;BME280;40469;47.998;7.794;2023-04-26T09:27:02;99066.97;;;10.20;100.00
53908;BME280;40469;47.998;7.794;2023-04-26T09:29:27;99066.09;;;10.24;100.00
53908;BME280;40469;47.998;7.794;2023-04-26T09:31:52;99061.81;;;10.14;100.00
53908;BME280;40469;47.998;7.794;2023-04-26T09:34:18;99060.75;;;10.47;100.00
53908;BME280;40469;47.998;7.794;2023-04-26T09:39:14;99046.09;;;11.22;100.00
53908;BME280;40469;47.998;7.794;2023-04-26T09:41:53;99047.81;;;11.98;100.00
53908;BME280;40469;47.998;7.794;2023-04-26T09:44:20;99048.28;;;12.24;100.00
53908;BME280;40469;47.998;7.794;2023-04-26T09:46:56;99050.72;;;11.73;100.00
53908;BME280;40469;47.998;7.794;2023-04-26T09:49:21;99057.19;;;11.43;100.00
53908;BME280;40469;47.998;7.794;2023-04-26T09:51:58;99057.47;;;11.19;100.00
53908;BME280;40469;47.998;7.794;2023-04-26T09:54:36;99055.84;;;11.08;100.00
53908;BME280;40469;47.998;7.794;2023-04-26T09:57:01;99054.81;;;11.24;100.00
53908;BME280;40469;47.998;7.794;2023-04-26T09:59:30;99056.41;;;11.34;100.00
53908;BME280;40469;47.998;7.794;2023-04-26T10:02:02;99053.81;;;12.06;100.00
53908;BME280;40469;47.998;7.794;2023-04-26T10:04:28;99044.88;;;12.74;100.00
53908;BME280;40469;47.998;7.794;2023-04-26T10:06:54;99042.84;;;12.38;100.00
53908;BME280;40469;47.998;7.794;2023-04-26T10:09:19;99045.03;;;12.64;100.00
53908;BME280;40469;47.998;7.794;2023-04-26T10:11:44;99042.31;;;13.19;100.00
53908;BME280;40469;47.998;7.794;2023-04-26T10:14:10;99037.66;;;13.35;100.00
53908;BME280;40469;47.998;7.794;2023-04-26T10:16:35;99037.38;;;13.49;100.00
53908;BME280;40469;47.998;7.794;2023-04-26T10:19:01;99037.28;;;13.53;100.00
53908;BME280;40469;47.998;7.794;2023-04-26T10:21:27;99036.69;;;12.92;100.00
53908;BME280;40469;47.998;7.794;2023-04-26T10:23:57;99039.22;;;12.45;100.00
53908;BME280;40469;47.998;7.794;2023-04-26T10:29:07;99027.16;;;13.36;100.00
53908;BME280;40469;47.998;7.794;2023-04-26T10:34:17;99030.84;;;13.70;100.00
53908;BME280;40469;47.998;7.794;2023-04-26T10:39:26;99021.13;;;13.73;100.00
53908;BME280;40469;47.998;7.794;2023-04-26T10:41:53;99022.00;;;13.74;100.00
53908;BME280;40469;47.998;7.794;2023-04-26T10:44:40;99030.13;;;14.00;100.00
53908;BME280;40469;47.998;7.794;2023-04-26T10:47:06;99028.50;;;13.96;100.00
53908;BME280;40469;47.998;7.794;2023-04-26T10:49:45;99020.31;;;13.71;100.00
53908;BME280;40469;47.998;7.794;2023-04-26T10:52:15;99016.50;;;13.84;100.00
53908;BME280;40469;47.998;7.794;2023-04-26T10:54:54;99019.78;;;13.94;100.00
53908;BME280;40469;47.998;7.794;2023-04-26T10:57:22;99019.09;;;13.86;100.00
53908;BME280;40469;47.998;7.794;2023-04-26T11:02:58;99007.09;;;13.32;100.00
53908;BME280;40469;47.998;7.794;2023-04-26T11:05:34;99005.06;;;13.01;100.00
53908;BME280;40469;47.998;7.794;2023-04-26T11:08:03;98995.84;;;12.80;100.00
53908;BME280;40469;47.998;7.794;2023-04-26T11:10:29;98999.28;;;12.84;100.00
53908;BME280;40469;47.998;7.794;2023-04-26T11:13:01;99000.09;;;12.87;100.00
53908;BME280;40469;47.998;7.794;2023-04-26T11:15:30;98996.63;;;12.85;100.00
53908;BME280;40469;47.998;7.794;2023-04-26T11:17:56;98987.50;;;13.06;100.00
53908;BME280;40469;47.998;7.794;2023-04-26T11:20:21;98981.81;;;12.83;100.00
53908;BME280;40469;47.998;7.794;2023-04-26T11:22:46;98983.03;;;13.12;100.00
53908;BME280;40469;47.998;7.794;2023-04-26T11:25:12;98974.59;;;13.41;100.00
53908;BME280;40469;47.998;7.794;2023-04-26T11:27:38;98967.13;;;13.19;100.00
53908;BME280;40469;47.998;7.794;2023-04-26T11:30:04;98973.09;;;13.27;100.00
53908;BME280;40469;47.998;7.794;2023-04-26T11:32:29;98976.56;;;12.84;100.00
53908;BME280;40469;47.998;7.794;2023-04-26T11:34:59;98970.16;;;13.01;100.00
53908;BME280;40469;47.998;7.794;2023-04-26T11:37:25;98973.84;;;12.89;100.00
53908;BME280;40469;47.998;7.794;2023-04-26T11:39:51;98969.38;;;12.94;100.00
53908;BME280;40469;47.998;7.794;2023-04-26T11:42:16;98969.19;;;13.05;100.00
53908;BME280;40469;47.998;7.794;2023-04-26T11:44:41;98976.97;;;13.09;100.00
53908;BME280;40469;47.998;7.794;2023-04-26T11:47:07;98977.75;;;13.15;100.00
53908;BME280;40469;47.998;7.794;2023-04-26T11:49:35;98977.59;;;13.21;100.00
53908;BME280;40469;47.998;7.794;2023-04-26T11:52:04;98978.16;;;13.38;100.00
53908;BME280;40469;47.998;7.794;2023-04-26T11:54:32;98976.16;;;13.50;100.00
53908;BME280;40469;47.998;7.794;2023-04-26T11:56:58;98966.84;;;13.36;100.00
53908;BME280;40469;47.998;7.794;2023-04-26T11:59:25;98970.41;;;13.73;100.00
53908;BME280;40469;47.998;7.794;2023-04-26T12:01:51;98968.91;;;14.00;100.00
53908;BME280;40469;47.998;7.794;2023-04-26T12:04:17;98969.06;;;14.30;100.00
53908;BME280;40469;47.998;7.794;2023-04-26T12:06:44;98954.22;;;14.27;100.00
53908;BME280;40469;47.998;7.794;2023-04-26T12:09:10;98950.00;;;13.86;100.00
53908;BME280;40469;47.998;7.794;2023-04-26T12:11:36;98947.88;;;14.01;100.00
53908;BME280;40469;47.998;7.794;2023-04-26T12:14:02;98946.75;;;13.74;100.00
53908;BME280;40469;47.998;7.794;2023-04-26T12:16:27;98940.91;;;13.61;100.00
53908;BME280;40469;47.998;7.794;2023-04-26T12:18:54;98938.38;;;13.58;100.00
53908;BME280;40469;47.998;7.794;2023-04-26T12:21:21;98941.41;;;13.40;100.00
53908;BME280;40469;47.998;7.794;2023-04-26T12:23:46;98951.72;;;13.48;100.00
53908;BME280;40469;47.998;7.794;2023-04-26T12:26:13;98949.44;;;13.31;100.00
53908;BME280;40469;47.998;7.794;2023-04-26T12:28:39;98939.00;;;13.70;100.00
53908;BME280;40469;47.998;7.794;2023-04-26T12:31:05;98941.13;;;13.52;100.00
53908;BME280;40469;47.998;7.794;2023-04-26T12:33:32;98947.41;;;13.84;100.00
53908;BME280;40469;47.998;7.794;2023-04-26T12:36:08;98931.91;;;13.73;100.00
53908;BME280;40469;47.998;7.794;2023-04-26T12:38:33;98930.06;;;14.14;100.00
53908;BME280;40469;47.998;7.794;2023-04-26T12:40:59;98933.34;;;14.57;100.00
53908;BME280;40469;47.998;7.794;2023-04-26T12:43:25;98930.44;;;14.35;100.00
53908;BME280;40469;47.998;7.794;2023-04-26T12:45:51;98923.63;;;14.26;100.00
53908;BME280;40469;47.998;7.794;2023-04-26T12:48:16;98921.63;;;14.36;100.00
53908;BME280;40469;47.998;7.794;2023-04-26T12:50:41;98921.97;;;14.58;100.00
53908;BME280;40469;47.998;7.794;2023-04-26T12:53:07;98924.25;;;14.01;100.00
53908;BME280;40469;47.998;7.794;2023-04-26T12:55:32;98919.44;;;13.83;100.00
53908;BME280;40469;47.998;7.794;2023-04-26T12:57:58;98919.69;;;14.08;100.00
53908;BME280;40469;47.998;7.794;2023-04-26T13:00:23;98913.03;;;13.95;100.00
53908;BME280;40469;47.998;7.794;2023-04-26T13:02:49;98921.09;;;14.23;100.00
53908;BME280;40469;47.998;7.794;2023-04-26T13:05:15;98916.22;;;14.42;100.00